createdAt,value
2018-05-02T00:02:23.577Z,"    0"
2018-05-02T00:07:20.173Z,"    0"
2018-05-02T00:12:16.495Z,"    0"
2018-05-02T00:17:12.136Z,"    0"
2018-05-02T00:22:07.959Z,"    0"
2018-05-02T00:27:03.779Z,"    0"
2018-05-02T00:32:03.461Z,"    0"
2018-05-02T00:36:58.242Z,"    0"
2018-05-02T00:41:58.013Z,"    0"
2018-05-02T00:46:52.927Z,"    0"
2018-05-02T00:51:52.502Z,"    0"
2018-05-02T00:56:47.367Z,"    0"
2018-05-02T01:01:43.121Z,"    0"
2018-05-02T01:06:39.153Z,"    0"
2018-05-02T01:11:35.594Z,"    0"
2018-05-02T01:16:31.496Z,"    0"
2018-05-02T01:21:27.936Z,"    0"
2018-05-02T01:26:27.346Z,"    0"
2018-05-02T01:31:22.056Z,"    0"
2018-05-02T01:36:21.721Z,"    0"
2018-05-02T01:41:16.653Z,"    0"
2018-05-02T01:46:12.459Z,"    0"
2018-05-02T01:51:07.984Z,"    0"
2018-05-02T01:56:03.635Z,"    0"
2018-05-02T02:00:59.099Z,"    0"
2018-05-02T02:05:55.931Z,"    0"
2018-05-02T02:10:51.276Z,"    0"
2018-05-02T02:15:46.903Z,"    0"
2018-05-02T02:20:42.236Z,"    0"
2018-05-02T02:25:38.767Z,"    0"
2018-05-02T02:30:34.285Z,"    0"
2018-05-02T02:35:29.829Z,"    0"
2018-05-02T02:40:29.242Z,"    0"
2018-05-02T02:45:29.422Z,"    0"
2018-05-02T02:50:23.891Z,"    0"
2018-05-02T02:55:19.607Z,"    0"
2018-05-02T03:00:15.207Z,"    0"
2018-05-02T03:05:11.901Z,"    0"
2018-05-02T03:10:07.723Z,"    0"
2018-05-02T03:15:03.500Z,"    0"
2018-05-02T03:20:00.215Z,"    0"
2018-05-02T03:24:55.574Z,"    0"
2018-05-02T03:29:52.296Z,"    8"
2018-05-02T03:34:48.659Z,"   12"
2018-05-02T03:39:45.145Z,"   20"
2018-05-02T03:44:40.619Z,"   40"
2018-05-02T03:49:36.261Z,"   68"
2018-05-02T03:54:31.998Z,"  108"
2018-05-02T03:59:32.761Z,"  168"
2018-05-02T04:04:31.386Z,"  252"
2018-05-02T04:09:27.835Z,"  352"
2018-05-02T04:14:23.259Z,"  476"
2018-05-02T04:19:19.052Z,"  616"
2018-05-02T04:24:14.800Z,"  760"
2018-05-02T04:29:10.855Z,"  924"
2018-05-02T04:34:10.392Z," 1100"
2018-05-02T04:39:05.261Z," 1404"
2018-05-02T04:44:01.237Z," 1568"
2018-05-02T04:48:57.593Z," 1744"
2018-05-02T04:53:54.385Z," 1860"
2018-05-02T04:58:49.848Z," 1976"
2018-05-02T05:03:50.665Z," 2124"
2018-05-02T05:08:45.174Z," 2328"
2018-05-02T05:13:40.484Z," 2548"
2018-05-02T05:18:41.136Z," 2596"
2018-05-02T05:23:35.882Z," 2688"
2018-05-02T05:28:32.878Z," 2756"
2018-05-02T05:33:28.319Z," 2816"
2018-05-02T05:38:24.169Z," 2920"
2018-05-02T05:43:20.005Z," 3032"
2018-05-02T05:48:15.989Z," 3224"
2018-05-02T05:53:11.898Z," 3292"
2018-05-02T05:58:07.719Z," 4212"
2018-05-02T06:03:03.690Z," 3772"
2018-05-02T06:07:59.735Z," 4004"
2018-05-02T06:12:55.637Z," 3496"
2018-05-02T06:17:52.530Z," 3468"
2018-05-02T06:22:48.175Z," 3536"
2018-05-02T06:27:48.196Z," 3620"
2018-05-02T06:32:44.327Z," 3912"
2018-05-02T06:37:44.768Z," 3880"
2018-05-02T06:42:40.146Z," 3848"
2018-05-02T06:47:35.943Z," 3904"
2018-05-02T06:52:31.814Z," 4868"
2018-05-02T06:57:27.757Z," 5904"
2018-05-02T07:02:27.791Z," 4232"
2018-05-02T07:07:22.950Z," 4956"
2018-05-02T07:12:22.889Z," 7964"
2018-05-02T07:17:17.914Z," 4608"
2018-05-02T07:22:19.010Z," 4996"
2018-05-02T07:27:19.499Z," 5124"
2018-05-02T07:32:14.294Z,13872
2018-05-02T07:37:10.595Z," 5460"
2018-05-02T07:42:10.963Z,13980
2018-05-02T07:47:09.205Z,54368
2018-05-02T07:52:07.659Z,52864
2018-05-02T07:57:05.438Z,56384
2018-05-02T08:02:03.073Z,45728
2018-05-02T08:07:00.847Z,51264
2018-05-02T08:12:01.440Z,53568
2018-05-02T08:16:57.025Z,53248
2018-05-02T08:21:53.297Z,56576
2018-05-02T08:26:49.722Z,54240
2018-05-02T08:31:46.082Z,58080
2018-05-02T08:36:42.315Z,50944
2018-05-02T08:41:42.459Z," 8172"
2018-05-02T08:46:35.628Z,11088
2018-05-02T08:51:34.360Z,12152
2018-05-02T08:56:32.049Z,12492
2018-05-02T09:01:28.225Z," 8792"
2018-05-02T09:06:23.427Z," 7964"
2018-05-02T09:11:20.108Z,11500
2018-05-02T09:16:15.704Z," 8424"
2018-05-02T09:21:11.312Z,11800
2018-05-02T09:26:08.148Z,20160
2018-05-02T09:31:06.304Z,26464
2018-05-02T09:36:04.199Z,48512
2018-05-02T09:41:01.160Z,12932
2018-05-02T09:45:57.264Z,59968
2018-05-02T09:50:58.278Z,37824
2018-05-02T09:55:55.329Z,37568
2018-05-02T10:00:52.184Z,45248
2018-05-02T10:05:47.993Z,69024
2018-05-02T10:10:48.687Z,69376
2018-05-02T10:15:48.800Z,65088
2018-05-02T10:20:44.386Z,66816
2018-05-02T10:25:42.112Z,17984
2018-05-02T10:30:41.667Z,75360
2018-05-02T10:35:38.168Z,15480
2018-05-02T10:40:34.887Z,72544
2018-05-02T10:45:35.397Z,77888
2018-05-02T10:50:31.352Z,71264
2018-05-02T10:55:28.128Z,64928
2018-05-02T11:00:25.165Z,64864
2018-05-02T11:05:26.164Z,45952
2018-05-02T11:10:22.175Z,68416
2018-05-02T11:15:19.836Z,80736
2018-05-02T11:20:16.978Z,94496
2018-05-02T11:25:13.858Z,87712
2018-05-02T11:30:10.153Z,83296
2018-05-02T11:35:10.369Z,82432
2018-05-02T11:40:09.793Z,106720
2018-05-02T11:45:05.109Z,101856
2018-05-02T11:50:02.330Z,105312
2018-05-02T11:55:01.958Z,88928
2018-05-02T11:59:57.049Z,78848
2018-05-02T12:04:52.987Z,80320
2018-05-02T12:09:49.173Z,75520
2018-05-02T12:14:49.385Z,44032
2018-05-02T12:19:43.718Z,49568
2018-05-02T12:24:44.360Z,47392
2018-05-02T12:29:38.257Z,46848
2018-05-02T12:34:37.953Z,65376
2018-05-02T12:39:36.480Z,30880
2018-05-02T12:44:33.644Z,15516
2018-05-02T12:49:27.780Z,23072
2018-05-02T12:54:28.447Z,26560
2018-05-02T12:59:28.251Z,52672
2018-05-02T13:04:27.479Z,39424
2018-05-02T13:09:24.420Z,64352
2018-05-02T13:14:25.286Z,40032
2018-05-02T13:19:20.347Z,60448
2018-05-02T13:24:16.112Z,44288
2018-05-02T13:29:12.461Z,35776
2018-05-02T13:34:07.831Z,39200
2018-05-02T13:39:03.039Z,10996
2018-05-02T13:43:59.380Z,11304
2018-05-02T13:48:54.339Z,10812
2018-05-02T13:53:49.744Z," 9652"
2018-05-02T13:58:50.398Z," 9716"
2018-05-02T14:03:50.100Z,10180
2018-05-02T14:08:46.079Z,10584
2018-05-02T14:13:45.964Z,10160
2018-05-02T14:18:40.915Z," 9772"
2018-05-02T14:23:41.477Z," 9852"
2018-05-02T14:28:36.922Z," 9368"
2018-05-02T14:33:33.481Z," 7912"
2018-05-02T14:38:32.915Z," 6892"
2018-05-02T14:43:28.127Z," 7196"
2018-05-02T14:48:27.616Z," 7872"
2018-05-02T14:53:22.480Z," 8240"
2018-05-02T14:58:23.154Z," 7400"
2018-05-02T15:03:21.905Z," 6068"
2018-05-02T15:08:21.798Z," 7340"
2018-05-02T15:13:20.527Z," 7408"
2018-05-02T15:18:20.335Z," 7552"
2018-05-02T15:23:15.382Z," 7100"
2018-05-02T15:28:12.344Z," 6980"
2018-05-02T15:33:07.937Z," 7180"
2018-05-02T15:38:07.701Z," 7096"
2018-05-02T15:43:02.720Z," 6984"
2018-05-02T15:47:59.440Z," 6344"
2018-05-02T15:52:59.814Z," 5652"
2018-05-02T15:57:58.447Z," 5612"
2018-05-02T16:02:53.434Z," 5724"
2018-05-02T16:07:53.088Z," 5928"
2018-05-02T16:12:48.397Z," 5732"
2018-05-02T16:17:48.276Z," 5236"
2018-05-02T16:22:43.225Z," 4964"
2018-05-02T16:27:39.999Z," 4836"
2018-05-02T16:32:39.456Z," 4840"
2018-05-02T16:37:34.416Z," 5192"
2018-05-02T16:42:30.220Z," 4836"
2018-05-02T16:47:27.213Z," 4528"
2018-05-02T16:52:23.488Z," 4204"
2018-05-02T16:57:22.621Z," 4120"
2018-05-02T17:02:17.221Z," 3996"
2018-05-02T17:07:15.183Z," 3892"
2018-05-02T17:12:10.525Z," 4096"
2018-05-02T17:17:11.271Z," 4044"
2018-05-02T17:22:06.268Z," 3944"
2018-05-02T17:27:02.311Z," 3660"
2018-05-02T17:32:03.255Z," 3148"
2018-05-02T17:37:01.727Z," 2544"
2018-05-02T17:42:00.621Z," 1948"
2018-05-02T17:46:55.292Z," 1764"
2018-05-02T17:51:50.929Z," 1624"
2018-05-02T17:56:46.702Z," 1516"
2018-05-02T18:01:43.904Z," 1308"
2018-05-02T18:06:39.048Z," 1196"
2018-05-02T18:11:39.934Z," 1088"
2018-05-02T18:16:38.741Z,"  900"
2018-05-02T18:21:33.797Z,"  696"
2018-05-02T18:26:30.528Z,"  580"
2018-05-02T18:31:29.983Z,"  468"
2018-05-02T18:36:28.793Z,"  356"
2018-05-02T18:41:25.214Z,"  264"
2018-05-02T18:46:20.550Z,"  184"
2018-05-02T18:51:15.944Z,"  124"
2018-05-02T18:56:12.138Z,"   80"
2018-05-02T19:01:07.656Z,"   44"
2018-05-02T19:06:07.210Z,"   28"
2018-05-02T19:11:02.086Z,"   16"
2018-05-02T19:15:57.846Z,"    8"
2018-05-02T19:20:58.458Z,"    4"
2018-05-02T19:25:58.745Z,"    4"
2018-05-02T19:30:53.444Z,"    0"
2018-05-02T19:35:53.090Z,"    0"
2018-05-02T19:40:47.604Z,"    0"
2018-05-02T19:45:47.331Z,"    0"
2018-05-02T19:50:47.121Z,"    0"
2018-05-02T19:55:41.936Z,"    0"
2018-05-02T20:00:37.604Z,"    0"
2018-05-02T20:05:37.349Z,"    0"
2018-05-02T20:10:37.272Z,"    0"
2018-05-02T20:15:31.857Z,"    0"
2018-05-02T20:20:27.698Z,"    0"
2018-05-02T20:25:27.372Z,"    0"
2018-05-02T20:30:22.251Z,"    0"
2018-05-02T20:35:22.961Z,"    0"
2018-05-02T20:40:17.757Z,"    0"
2018-05-02T20:45:13.595Z,"    0"
2018-05-02T20:50:14.220Z,"    0"
2018-05-02T20:55:12.925Z,"    0"
2018-05-02T21:00:13.024Z,"    0"
2018-05-02T21:05:12.014Z,"    0"
2018-05-02T21:10:07.973Z,"    0"
2018-05-02T21:15:07.685Z,"    0"
2018-05-02T21:20:03.700Z,"    0"
2018-05-02T21:25:01.313Z,"    0"
2018-05-02T21:30:01.966Z,"    0"
2018-05-02T21:34:57.663Z,"    0"
2018-05-02T21:39:53.113Z,"    0"
2018-05-02T21:44:49.927Z,"    0"
2018-05-02T21:49:49.264Z,"    0"
2018-05-02T21:54:44.188Z,"    0"
2018-05-02T22:04:42.483Z,"    0"
2018-05-02T22:09:42.117Z,"    0"
2018-05-02T22:14:38.259Z,"    0"
2018-05-02T22:19:33.827Z,"    0"
2018-05-02T22:24:30.606Z,"    0"
2018-05-02T22:34:26.569Z,"    0"
2018-05-02T22:39:22.232Z,"    0"
2018-05-02T22:44:17.631Z,"    0"
2018-05-02T22:49:17.875Z,"    0"
2018-05-02T22:54:16.721Z,"    0"
2018-05-02T22:59:11.264Z,"    0"
2018-05-02T23:04:11.073Z,"    0"
2018-05-02T23:09:05.988Z,"    0"
2018-05-02T23:14:02.228Z,"    0"
2018-05-02T23:19:03.629Z,"    0"
2018-05-02T23:24:00.977Z,"    0"
2018-05-02T23:28:56.133Z,"    0"
2018-05-02T23:38:53.299Z,"    0"
2018-05-02T23:43:50.617Z,"    0"
2018-05-02T23:48:46.928Z,"    0"
2018-05-02T23:53:42.693Z,"    0"
2018-05-02T23:58:38.387Z,"    0"
